createdAt,value
2023-04-09T00:00:17.676Z,7.22
2023-04-09T00:02:44.495Z,8.45
2023-04-09T00:05:11.352Z,7.78
2023-04-09T00:07:38.117Z,7.43
2023-04-09T00:10:05.485Z,7.35
2023-04-09T00:12:32.205Z,7.70
2023-04-09T00:14:59.020Z,7.20
2023-04-09T00:17:25.836Z,8.18
2023-04-09T00:19:52.535Z,8.15
2023-04-09T00:22:19.240Z,7.97
2023-04-09T00:24:46.197Z,7.95
2023-04-09T00:27:12.891Z,7.88
2023-04-09T00:29:39.638Z,7.80
2023-04-09T00:32:06.730Z,7.53
2023-04-09T00:34:34.560Z,7.60
2023-04-09T00:37:01.397Z,7.20
2023-04-09T00:39:28.398Z,7.43
2023-04-09T00:41:59.004Z,6.88
2023-04-09T00:44:25.964Z,7.10
2023-04-09T00:46:54.067Z,7.18
2023-04-09T00:49:21.933Z,7.35
2023-04-09T00:51:48.939Z,7.68
2023-04-09T00:54:16.208Z,7.57
2023-04-09T00:56:42.909Z,7.47
2023-04-09T00:59:09.638Z,8.00
2023-04-09T01:01:36.384Z,7.80
2023-04-09T01:04:03.752Z,7.35
2023-04-09T01:06:52.426Z,6.95
2023-04-09T01:09:31.051Z,7.65
2023-04-09T01:12:30.317Z,7.85
2023-04-09T01:15:03.562Z,7.53
2023-04-09T01:17:35.941Z,7.95
2023-04-09T01:20:09.388Z,7.57
2023-04-09T01:22:44.969Z,7.13
2023-04-09T01:25:49.185Z,7.45
2023-04-09T01:28:32.359Z,7.72
2023-04-09T01:31:09.364Z,7.15
2023-04-09T01:33:39.008Z,7.22
2023-04-09T01:36:06.876Z,7.82
2023-04-09T01:38:36.367Z,8.63
2023-04-09T01:41:04.566Z,7.85
2023-04-09T01:43:32.625Z,7.60
2023-04-09T01:46:01.402Z,7.05
2023-04-09T01:48:30.458Z,6.90
2023-04-09T01:51:00.327Z,8.27
2023-04-09T01:53:28.472Z,6.85
2023-04-09T01:55:56.797Z,7.93
2023-04-09T01:58:25.061Z,8.15
2023-04-09T02:00:57.113Z,7.22
2023-04-09T02:03:29.848Z,7.15
2023-04-09T02:06:04.187Z,7.00
2023-04-09T02:08:34.594Z,7.97
2023-04-09T02:11:06.810Z,7.75
2023-04-09T02:13:34.921Z,7.72
2023-04-09T02:16:03.883Z,7.93
2023-04-09T02:18:31.426Z,7.32
2023-04-09T02:20:59.061Z,7.88
2023-04-09T02:23:27.355Z,7.43
2023-04-09T02:25:54.314Z,6.45
2023-04-09T02:28:21.086Z,7.22
2023-04-09T02:30:47.865Z,7.07
2023-04-09T02:33:14.734Z,7.10
2023-04-09T02:35:41.471Z,6.70
2023-04-09T02:38:14.008Z,6.40
2023-04-09T02:40:41.482Z,7.03
2023-04-09T02:43:09.651Z,6.55
2023-04-09T02:45:36.785Z,6.68
2023-04-09T02:48:04.015Z,6.22
2023-04-09T02:50:34.675Z,8.05
2023-04-09T02:53:01.981Z,8.27
2023-04-09T02:55:29.130Z,8.02
2023-04-09T02:57:55.944Z,7.22
2023-04-09T03:00:22.829Z,8.20
2023-04-09T03:02:50.304Z,8.32
2023-04-09T03:05:17.080Z,7.75
2023-04-09T03:07:43.915Z,8.13
2023-04-09T03:10:11.056Z,7.43
2023-04-09T03:12:37.790Z,7.50
2023-04-09T03:15:05.220Z,7.53
2023-04-09T03:17:32.194Z,7.07
2023-04-09T03:19:59.320Z,7.30
2023-04-09T03:22:37.912Z,6.80
2023-04-09T03:27:36.619Z,6.53
2023-04-09T03:30:04.135Z,7.65
2023-04-09T03:32:40.343Z,8.38
2023-04-09T03:35:09.405Z,7.53
2023-04-09T03:37:37.211Z,7.10
2023-04-09T03:40:05.325Z,7.95
2023-04-09T03:42:32.457Z,7.40
2023-04-09T03:44:59.960Z,8.32
2023-04-09T03:47:34.193Z,7.57
2023-04-09T03:50:01.382Z,8.32
2023-04-09T03:52:34.832Z,8.23
2023-04-09T03:55:06.332Z,8.45
2023-04-09T03:57:33.192Z,7.13
2023-04-09T04:00:00.391Z,7.25
2023-04-09T04:02:30.405Z,7.45
2023-04-09T04:05:02.400Z,7.78
2023-04-09T04:07:34.284Z,7.80
2023-04-09T04:10:11.896Z,7.38
2023-04-09T04:12:42.738Z,7.00
2023-04-09T04:15:14.412Z,6.47
2023-04-09T04:17:49.081Z,7.43
2023-04-09T04:23:02.864Z,6.80
2023-04-09T04:25:30.011Z,7.85
2023-04-09T04:27:57.173Z,8.63
2023-04-09T04:30:30.916Z,8.02
2023-04-09T04:33:05.350Z,9.30
2023-04-09T04:35:40.498Z,8.30
2023-04-09T04:38:12.155Z,8.30
2023-04-09T04:40:39.914Z,8.00
2023-04-09T04:43:08.892Z,9.10
2023-04-09T04:45:35.726Z,8.02
2023-04-09T04:48:08.791Z,8.77
2023-04-09T04:50:35.508Z,8.13
2023-04-09T04:53:06.659Z,9.07
2023-04-09T04:55:42.674Z,8.15
2023-04-09T04:58:15.641Z,8.98
2023-04-09T05:00:50.221Z,7.50
2023-04-09T05:03:17.355Z,7.72
2023-04-09T05:05:53.063Z,9.60
2023-04-09T05:08:20.891Z,8.60
2023-04-09T05:10:51.511Z,9.07
2023-04-09T05:13:19.875Z,8.32
2023-04-09T05:15:46.552Z,8.20
2023-04-09T05:18:13.298Z,7.90
2023-04-09T05:20:40.082Z,8.18
2023-04-09T05:23:10.408Z,8.00
2023-04-09T05:25:43.179Z,7.83
2023-04-09T05:28:27.167Z,8.43
2023-04-09T05:31:04.448Z,7.78
2023-04-09T05:33:38.193Z,7.25
2023-04-09T05:36:18.336Z,8.02
2023-04-09T05:38:47.357Z,7.43
2023-04-09T05:41:15.138Z,8.50
2023-04-09T05:43:53.617Z,8.32
2023-04-09T05:46:20.809Z,8.40
2023-04-09T05:48:50.885Z,8.45
2023-04-09T05:51:17.859Z,8.23
2023-04-09T05:53:44.785Z,8.63
2023-04-09T05:56:15.908Z,8.43
2023-04-09T05:58:55.174Z,7.63
2023-04-09T06:01:22.221Z,8.88
2023-04-09T06:03:49.724Z,9.07
2023-04-09T06:06:17.074Z,9.90
2023-04-09T06:08:45.034Z,8.02
2023-04-09T06:11:12.221Z,8.85
2023-04-09T06:13:39.182Z,9.88
2023-04-09T06:16:09.611Z,8.55
2023-04-09T06:18:39.408Z,8.82
2023-04-09T06:21:07.672Z,9.25
2023-04-09T06:23:36.980Z,9.43
2023-04-09T06:26:03.750Z,10.40
2023-04-09T06:28:31.697Z,8.75
2023-04-09T06:30:58.962Z,9.38
2023-04-09T06:33:27.101Z,9.05
2023-04-09T06:35:54.407Z,9.15
2023-04-09T06:38:21.118Z,8.30
2023-04-09T06:40:47.896Z,8.90
2023-04-09T06:43:14.576Z,8.50
2023-04-09T06:45:52.132Z,8.70
2023-04-09T06:48:18.863Z,9.07
2023-04-09T06:50:45.667Z,8.93
2023-04-09T06:53:12.458Z,8.45
2023-04-09T06:55:39.095Z,9.20
2023-04-09T06:58:06.273Z,8.15
2023-04-09T07:00:33.603Z,8.10
2023-04-09T07:03:01.439Z,8.65
2023-04-09T07:05:29.212Z,8.73
2023-04-09T07:07:56.167Z,8.32
2023-04-09T07:10:23.219Z,8.40
2023-04-09T07:12:50.310Z,8.50
2023-04-09T07:15:17.367Z,9.55
2023-04-09T07:17:44.253Z,8.65
2023-04-09T07:20:11.561Z,8.95
2023-04-09T07:22:39.507Z,9.13
2023-04-09T07:25:06.801Z,9.75
2023-04-09T07:27:33.817Z,9.13
2023-04-09T07:30:01.328Z,9.07
2023-04-09T07:32:28.464Z,9.57
2023-04-09T07:34:57.479Z,9.05
2023-04-09T07:37:24.536Z,8.75
2023-04-09T07:39:53.650Z,10.20
2023-04-09T07:42:20.802Z,10.35
2023-04-09T07:44:47.620Z,9.70
2023-04-09T07:47:14.570Z,10.20
2023-04-09T07:49:41.350Z,10.63
2023-04-09T07:52:08.300Z,9.18
2023-04-09T07:54:35.464Z,10.13
2023-04-09T07:57:02.817Z,9.75
2023-04-09T07:59:30.817Z,9.93
2023-04-09T08:01:58.062Z,8.98
2023-04-09T08:04:24.965Z,9.13
2023-04-09T08:06:51.930Z,8.77
2023-04-09T08:09:18.893Z,9.32
2023-04-09T08:11:47.254Z,9.15
2023-04-09T08:14:15.571Z,9.98
2023-04-09T08:16:47.328Z,9.45
2023-04-09T08:19:16.318Z,10.02
2023-04-09T08:21:43.919Z,9.30
2023-04-09T08:24:11.938Z,9.65
2023-04-09T08:26:42.149Z,8.70
2023-04-09T08:29:10.298Z,8.57
2023-04-09T08:31:37.561Z,8.70
2023-04-09T08:34:04.727Z,8.95
2023-04-09T08:36:32.597Z,8.75
2023-04-09T08:39:00.642Z,7.88
2023-04-09T08:41:29.419Z,7.82
2023-04-09T08:43:59.180Z,8.07
2023-04-09T08:46:26.558Z,8.10
2023-04-09T08:48:53.944Z,8.00
2023-04-09T08:51:23.352Z,7.63
2023-04-09T08:54:04.262Z,7.55
2023-04-09T08:56:31.440Z,8.35
2023-04-09T08:58:58.656Z,7.05
2023-04-09T09:01:31.395Z,9.57
2023-04-09T09:03:59.385Z,6.35
2023-04-09T09:06:33.047Z,6.57
2023-04-09T09:09:11.215Z,7.03
2023-04-09T09:11:45.953Z,6.97
2023-04-09T09:14:15.453Z,6.65
2023-04-09T09:17:03.691Z,10.60
2023-04-09T09:19:33.610Z,6.28
2023-04-09T09:22:03.551Z,7.35
2023-04-09T09:24:34.928Z,8.02
2023-04-09T09:27:02.670Z,7.15
2023-04-09T09:29:29.795Z,6.43
2023-04-09T09:31:57.007Z,6.47
2023-04-09T09:34:25.379Z,7.25
2023-04-09T09:36:53.874Z,6.00
2023-04-09T09:39:22.074Z,9.50
2023-04-09T09:42:06.741Z,9.25
2023-04-09T09:44:33.882Z,5.85
2023-04-09T09:47:03.528Z,10.07
2023-04-09T09:49:30.434Z,8.18
2023-04-09T09:51:59.984Z,5.38
2023-04-09T09:54:32.067Z,7.10
2023-04-09T09:57:06.211Z,5.95
2023-04-09T09:59:38.712Z,5.22
2023-04-09T10:02:07.738Z,6.10
2023-04-09T10:04:36.238Z,5.95
2023-04-09T10:07:07.472Z,7.90
2023-04-09T10:09:38.263Z,5.55
2023-04-09T10:12:07.838Z,14.02
2023-04-09T10:14:36.246Z,9.50
2023-04-09T10:17:04.553Z,4.50
2023-04-09T10:19:35.798Z,4.68
2023-04-09T10:22:08.569Z,4.80
2023-04-09T10:24:36.850Z,4.75
2023-04-09T10:27:16.689Z,4.43
2023-04-09T10:29:49.108Z,5.30
2023-04-09T10:32:26.702Z,5.00
2023-04-09T10:34:59.559Z,5.10
2023-04-09T10:37:27.572Z,5.20
2023-04-09T10:39:54.769Z,5.53
2023-04-09T10:42:27.445Z,5.10
2023-04-09T10:45:14.249Z,5.55
2023-04-09T10:47:43.423Z,4.65
2023-04-09T10:50:25.444Z,5.07
2023-04-09T10:52:54.278Z,4.13
2023-04-09T10:55:42.376Z,4.43
2023-04-09T10:58:13.310Z,4.75
2023-04-09T11:00:51.852Z,4.63
2023-04-09T11:03:32.851Z,5.15
2023-04-09T11:06:06.183Z,4.72
2023-04-09T11:08:34.050Z,4.30
2023-04-09T11:11:01.966Z,4.30
2023-04-09T11:13:30.511Z,4.03
2023-04-09T11:15:58.621Z,3.92
2023-04-09T11:18:27.904Z,3.97
2023-04-09T11:20:59.607Z,3.88
2023-04-09T11:23:27.104Z,3.95
2023-04-09T11:25:54.273Z,4.10
2023-04-09T11:28:21.673Z,4.88
2023-04-09T11:30:51.172Z,3.78
2023-04-09T11:33:20.052Z,3.88
2023-04-09T11:35:47.558Z,4.10
2023-04-09T11:38:14.336Z,3.92
2023-04-09T11:40:49.691Z,4.20
2023-04-09T11:43:17.999Z,3.58
2023-04-09T11:45:47.070Z,3.75
2023-04-09T11:48:15.086Z,3.67
2023-04-09T11:50:41.946Z,3.85
2023-04-09T11:53:22.506Z,3.83
2023-04-09T11:55:53.617Z,4.10
2023-04-09T11:58:25.675Z,3.90
2023-04-09T12:00:58.036Z,3.67
2023-04-09T12:03:33.299Z,3.50
2023-04-09T12:06:02.555Z,3.78
2023-04-09T12:08:29.252Z,3.70
2023-04-09T12:10:56.145Z,3.90
2023-04-09T12:13:32.798Z,4.40
2023-04-09T12:16:01.373Z,3.88
2023-04-09T12:18:28.095Z,4.03
2023-04-09T12:20:55.016Z,3.45
2023-04-09T12:23:21.722Z,3.88
2023-04-09T12:25:48.449Z,3.78
2023-04-09T12:28:18.122Z,3.50
2023-04-09T12:30:46.320Z,3.78
2023-04-09T12:33:13.129Z,3.35
2023-04-09T12:35:40.723Z,3.55
2023-04-09T12:38:07.542Z,3.80
2023-04-09T12:40:35.648Z,3.95
2023-04-09T12:43:02.487Z,4.22
2023-04-09T12:45:30.365Z,3.10
2023-04-09T12:47:57.292Z,3.50
2023-04-09T12:50:24.376Z,3.40
2023-04-09T12:52:51.263Z,3.45
2023-04-09T12:55:18.161Z,8.18
2023-04-09T12:57:47.272Z,10.68
2023-04-09T13:00:14.663Z,4.25
2023-04-09T13:02:41.687Z,4.05
2023-04-09T13:05:08.911Z,6.35
2023-04-09T13:07:35.829Z,3.75
2023-04-09T13:10:02.669Z,3.28
2023-04-09T13:12:30.505Z,3.10
2023-04-09T13:14:59.197Z,3.92
2023-04-09T13:17:26.225Z,2.88
2023-04-09T13:19:53.570Z,2.97
2023-04-09T13:22:20.369Z,2.72
2023-04-09T13:24:47.246Z,3.50
2023-04-09T13:27:14.457Z,3.50
2023-04-09T13:29:41.476Z,2.88
2023-04-09T13:32:08.150Z,3.38
2023-04-09T13:34:35.479Z,3.25
2023-04-09T13:37:03.362Z,3.08
2023-04-09T13:39:30.161Z,2.50
2023-04-09T13:41:57.001Z,3.92
2023-04-09T13:44:25.429Z,3.90
2023-04-09T13:46:52.735Z,2.97
2023-04-09T13:49:19.758Z,3.20
2023-04-09T13:51:46.892Z,3.00
2023-04-09T13:54:13.685Z,5.63
2023-04-09T13:56:40.517Z,3.63
2023-04-09T13:59:07.770Z,4.15
2023-04-09T14:01:34.984Z,7.63
2023-04-09T14:04:02.357Z,3.90
2023-04-09T14:06:29.668Z,3.95
2023-04-09T14:08:56.904Z,7.38
2023-04-09T14:11:23.678Z,7.85
2023-04-09T14:13:50.779Z,9.15
2023-04-09T14:16:17.481Z,3.35
2023-04-09T14:18:44.303Z,2.92
2023-04-09T14:21:11.342Z,11.98
2023-04-09T14:23:39.382Z,14.02
2023-04-09T14:26:06.648Z,6.07
2023-04-09T14:28:33.719Z,5.82
2023-04-09T14:31:01.243Z,7.28
2023-04-09T14:33:28.182Z,9.77
2023-04-09T14:35:55.078Z,3.67
2023-04-09T14:38:24.175Z,16.33
2023-04-09T14:40:51.997Z,4.53
2023-04-09T14:43:19.330Z,12.95
2023-04-09T14:45:46.186Z,4.93
2023-04-09T14:48:13.055Z,4.05
2023-04-09T14:50:39.965Z,3.85
2023-04-09T14:53:06.709Z,5.45
2023-04-09T14:55:33.299Z,5.50
2023-04-09T14:58:03.763Z,7.70
2023-04-09T15:00:34.950Z,19.25
2023-04-09T15:03:02.039Z,15.20
2023-04-09T15:05:29.131Z,8.15
2023-04-09T15:07:56.155Z,14.00
2023-04-09T15:10:22.970Z,19.67
2023-04-09T15:12:49.993Z,20.15
2023-04-09T15:15:16.679Z,8.80
2023-04-09T15:17:43.378Z,3.38
2023-04-09T15:20:11.324Z,7.60
2023-04-09T15:22:38.014Z,4.65
2023-04-09T15:25:05.556Z,4.88
2023-04-09T15:27:32.854Z,3.42
2023-04-09T15:29:59.546Z,3.47
2023-04-09T15:32:26.353Z,3.35
2023-04-09T15:34:52.996Z,2.90
2023-04-09T15:37:20.301Z,2.90
2023-04-09T15:39:46.898Z,3.60
2023-04-09T15:42:14.862Z,3.10
2023-04-09T15:44:41.580Z,3.60
2023-04-09T15:47:08.343Z,3.28
2023-04-09T15:49:36.918Z,3.70
2023-04-09T15:52:03.979Z,3.80
2023-04-09T15:54:30.796Z,2.85
2023-04-09T15:56:57.958Z,2.70
2023-04-09T15:59:24.683Z,3.53
2023-04-09T16:01:52.682Z,3.28
2023-04-09T16:04:19.556Z,3.65
2023-04-09T16:06:46.454Z,3.97
2023-04-09T16:09:13.450Z,3.80
2023-04-09T16:11:40.701Z,3.85
2023-04-09T16:14:09.063Z,4.70
2023-04-09T16:16:36.764Z,4.10
2023-04-09T16:19:03.790Z,4.22
2023-04-09T16:21:31.168Z,4.60
2023-04-09T16:23:57.941Z,4.18
2023-04-09T16:26:24.759Z,4.25
2023-04-09T16:28:51.805Z,4.57
2023-04-09T16:31:18.896Z,4.13
2023-04-09T16:33:45.831Z,3.88
2023-04-09T16:36:12.734Z,4.32
2023-04-09T16:38:39.476Z,4.18
2023-04-09T16:41:06.441Z,3.67
2023-04-09T16:43:33.060Z,4.80
2023-04-09T16:46:00.430Z,4.10
2023-04-09T16:48:27.177Z,3.92
2023-04-09T16:50:53.926Z,3.80
2023-04-09T16:53:20.945Z,4.20
2023-04-09T16:55:47.968Z,4.93
2023-04-09T16:58:14.823Z,3.90
2023-04-09T17:00:42.054Z,3.90
2023-04-09T17:03:09.082Z,3.75
2023-04-09T17:05:36.039Z,4.13
2023-04-09T17:08:02.897Z,4.57
2023-04-09T17:10:29.819Z,4.05
2023-04-09T17:12:56.485Z,4.38
2023-04-09T17:15:25.120Z,3.85
2023-04-09T17:17:53.650Z,3.95
2023-04-09T17:20:22.606Z,4.15
2023-04-09T17:22:49.674Z,3.97
2023-04-09T17:25:16.814Z,3.78
2023-04-09T17:27:45.246Z,4.03
2023-04-09T17:30:12.531Z,3.67
2023-04-09T17:32:39.738Z,3.88
2023-04-09T17:35:07.543Z,4.40
2023-04-09T17:37:34.748Z,4.13
2023-04-09T17:40:04.833Z,4.30
2023-04-09T17:42:31.738Z,4.28
2023-04-09T17:44:58.353Z,4.18
2023-04-09T17:47:25.168Z,4.38
2023-04-09T17:49:52.688Z,4.90
2023-04-09T17:52:20.350Z,4.43
2023-04-09T17:54:47.285Z,3.95
2023-04-09T17:57:14.311Z,4.15
2023-04-09T17:59:41.036Z,4.93
2023-04-09T18:02:07.957Z,4.63
2023-04-09T18:04:35.613Z,3.97
2023-04-09T18:07:03.865Z,5.00
2023-04-09T18:09:30.621Z,4.82
2023-04-09T18:11:57.897Z,4.63
2023-04-09T18:14:24.707Z,4.85
2023-04-09T18:16:53.074Z,4.47
2023-04-09T18:19:19.727Z,4.28
2023-04-09T18:21:46.607Z,5.15
2023-04-09T18:24:13.433Z,4.85
2023-04-09T18:26:40.428Z,4.30
2023-04-09T18:29:07.091Z,4.82
2023-04-09T18:31:34.010Z,4.65
2023-04-09T18:34:00.747Z,5.07
2023-04-09T18:36:28.336Z,4.20
2023-04-09T18:38:56.211Z,4.72
2023-04-09T18:41:24.360Z,5.03
2023-04-09T18:43:51.600Z,4.82
2023-04-09T18:46:19.000Z,4.90
2023-04-09T18:48:47.117Z,4.45
2023-04-09T18:51:14.575Z,5.13
2023-04-09T18:53:42.176Z,5.35
2023-04-09T18:56:09.108Z,4.75
2023-04-09T18:58:36.357Z,5.25
2023-04-09T19:01:11.793Z,5.45
2023-04-09T19:03:39.951Z,6.07
2023-04-09T19:06:12.032Z,5.00
2023-04-09T19:08:39.163Z,4.78
2023-04-09T19:11:07.695Z,5.22
2023-04-09T19:13:34.978Z,5.00
2023-04-09T19:16:02.281Z,5.68
2023-04-09T19:18:29.710Z,5.43
2023-04-09T19:20:56.825Z,5.78
2023-04-09T19:23:23.569Z,5.10
2023-04-09T19:25:52.385Z,5.93
2023-04-09T19:28:19.674Z,5.75
2023-04-09T19:30:46.408Z,5.40
2023-04-09T19:33:13.274Z,5.90
2023-04-09T19:35:41.242Z,4.93
2023-04-09T19:38:08.319Z,5.03
2023-04-09T19:40:35.409Z,5.07
2023-04-09T19:43:02.149Z,5.50
2023-04-09T19:45:28.888Z,4.93
2023-04-09T19:47:55.990Z,5.70
2023-04-09T19:50:23.032Z,5.45
2023-04-09T19:52:49.862Z,5.93
2023-04-09T19:55:16.569Z,5.18
2023-04-09T19:57:44.297Z,5.90
2023-04-09T20:00:11.618Z,5.05
2023-04-09T20:02:39.574Z,5.68
2023-04-09T20:05:06.627Z,5.95
2023-04-09T20:07:34.073Z,5.63
2023-04-09T20:10:01.018Z,5.70
2023-04-09T20:12:29.670Z,6.07
2023-04-09T20:14:57.378Z,5.68
2023-04-09T20:17:24.489Z,6.32
2023-04-09T20:19:51.311Z,6.15
2023-04-09T20:22:17.984Z,5.90
2023-04-09T20:24:44.669Z,5.85
2023-04-09T20:27:11.946Z,5.55
2023-04-09T20:29:39.732Z,6.00
2023-04-09T20:32:06.549Z,5.97
2023-04-09T20:34:33.344Z,5.90
2023-04-09T20:37:00.508Z,5.70
2023-04-09T20:39:27.327Z,4.88
2023-04-09T20:41:55.192Z,5.85
2023-04-09T20:44:22.497Z,5.47
2023-04-09T20:46:49.215Z,5.45
2023-04-09T20:49:15.958Z,5.72
2023-04-09T20:51:42.768Z,5.47
2023-04-09T20:54:09.884Z,5.35
2023-04-09T20:56:36.825Z,5.35
2023-04-09T20:59:03.876Z,5.55
2023-04-09T21:01:30.596Z,5.50
2023-04-09T21:03:57.545Z,5.75
2023-04-09T21:06:24.349Z,5.95
2023-04-09T21:08:51.654Z,4.90
2023-04-09T21:11:18.573Z,5.00
2023-04-09T21:16:15.440Z,5.97
2023-04-09T21:18:42.092Z,5.72
2023-04-09T21:21:08.949Z,5.03
2023-04-09T21:23:35.639Z,5.03
2023-04-09T21:26:04.702Z,5.00
2023-04-09T21:28:31.981Z,4.95
2023-04-09T21:30:58.684Z,4.60
2023-04-09T21:33:26.620Z,4.78
2023-04-09T21:35:54.726Z,4.57
2023-04-09T21:38:21.493Z,4.45
2023-04-09T21:40:48.307Z,4.45
2023-04-09T21:43:14.953Z,4.05
2023-04-09T21:45:41.700Z,4.70
2023-04-09T21:48:09.184Z,4.40
2023-04-09T21:50:36.057Z,4.25
2023-04-09T21:53:03.284Z,4.20
2023-04-09T21:55:30.242Z,3.40
2023-04-09T21:57:57.000Z,3.70
2023-04-09T22:00:23.822Z,3.17
2023-04-09T22:02:50.838Z,3.03
2023-04-09T22:05:17.672Z,3.08
2023-04-09T22:07:44.591Z,3.30
2023-04-09T22:10:11.613Z,2.90
2023-04-09T22:12:38.372Z,3.40
2023-04-09T22:15:05.908Z,2.78
2023-04-09T22:17:32.754Z,3.17
2023-04-09T22:19:59.479Z,2.83
2023-04-09T22:22:26.132Z,2.75
2023-04-09T22:24:53.018Z,2.40
2023-04-09T22:27:19.655Z,2.80
2023-04-09T22:29:46.500Z,2.67
2023-04-09T22:32:13.513Z,2.63
2023-04-09T22:34:40.455Z,2.28
2023-04-09T22:37:07.170Z,2.65
2023-04-09T22:39:33.905Z,2.38
2023-04-09T22:42:01.813Z,2.75
2023-04-09T22:44:28.714Z,2.17
2023-04-09T22:46:55.558Z,2.60
2023-04-09T22:49:23.887Z,2.40
2023-04-09T22:51:50.529Z,2.33
2023-04-09T22:54:17.219Z,2.33
2023-04-09T22:56:44.755Z,2.28
2023-04-09T22:59:11.858Z,2.00
2023-04-09T23:01:38.942Z,1.88
2023-04-09T23:04:05.865Z,2.33
2023-04-09T23:06:32.491Z,2.10
2023-04-09T23:09:00.052Z,2.00
2023-04-09T23:11:27.337Z,2.55
2023-04-09T23:13:54.122Z,2.20
2023-04-09T23:16:21.254Z,1.90
2023-04-09T23:18:48.131Z,2.13
2023-04-09T23:21:14.808Z,2.13
2023-04-09T23:23:41.563Z,2.20
2023-04-09T23:26:08.244Z,1.80
2023-04-09T23:28:34.966Z,2.55
2023-04-09T23:31:01.769Z,2.60
2023-04-09T23:33:28.513Z,2.50
2023-04-09T23:35:55.286Z,2.47
2023-04-09T23:38:22.071Z,2.67
2023-04-09T23:40:49.293Z,2.75
2023-04-09T23:43:16.226Z,2.33
2023-04-09T23:45:44.117Z,2.70
2023-04-09T23:48:12.085Z,2.45
2023-04-09T23:50:39.752Z,2.33
2023-04-09T23:53:06.638Z,1.95
2023-04-09T23:55:37.908Z,2.72
2023-04-09T23:58:05.341Z,2.95
